createdAt,value
2022-09-28T00:00:35.988Z,8.30
2022-09-28T00:01:36.005Z,8.20
2022-09-28T00:02:36.081Z,8.25
2022-09-28T00:03:35.963Z,8.25
2022-09-28T00:04:35.936Z,8.25
2022-09-28T00:05:35.943Z,8.30
2022-09-28T00:06:35.927Z,8.28
2022-09-28T00:07:35.927Z,8.29
2022-09-28T00:08:35.934Z,8.28
2022-09-28T00:09:35.878Z,8.33
2022-09-28T00:10:35.875Z,8.22
2022-09-28T00:11:35.856Z,8.23
2022-09-28T00:12:35.883Z,8.28
2022-09-28T00:13:35.831Z,8.34
2022-09-28T00:14:35.820Z,8.36
2022-09-28T00:15:35.812Z,8.34
2022-09-28T00:16:35.903Z,8.28
2022-09-28T00:17:35.798Z,8.38
2022-09-28T00:18:35.798Z,8.43
2022-09-28T00:19:35.771Z,8.40
2022-09-28T00:20:35.777Z,8.38
2022-09-28T00:21:35.752Z,8.26
2022-09-28T00:22:35.777Z,8.40
2022-09-28T00:23:35.736Z,8.38
2022-09-28T00:24:35.742Z,8.48
2022-09-28T00:25:35.695Z,8.33
2022-09-28T00:26:35.686Z,8.48
2022-09-28T00:27:35.692Z,8.40
2022-09-28T00:28:35.690Z,8.38
2022-09-28T00:29:35.677Z,8.41
2022-09-28T00:30:35.641Z,8.47
2022-09-28T00:31:35.701Z,8.34
2022-09-28T00:32:35.619Z,8.43
2022-09-28T00:33:35.640Z,8.44
2022-09-28T00:34:35.639Z,8.33
2022-09-28T00:35:35.603Z,8.40
2022-09-28T00:36:35.578Z,8.38
2022-09-28T00:37:35.561Z,8.44
2022-09-28T00:38:35.554Z,8.48
2022-09-28T00:39:35.552Z,8.38
2022-09-28T00:40:35.584Z,8.44
2022-09-28T00:41:35.532Z,8.41
2022-09-28T00:42:35.514Z,8.45
2022-09-28T00:43:35.498Z,8.44
2022-09-28T00:44:35.561Z,8.37
2022-09-28T00:45:35.560Z,8.43
2022-09-28T00:46:35.484Z,8.50
2022-09-28T00:47:35.449Z,8.47
2022-09-28T00:48:35.440Z,8.43
2022-09-28T00:49:35.459Z,8.40
2022-09-28T00:50:35.440Z,8.50
2022-09-28T00:51:35.427Z,8.36
2022-09-28T00:52:35.426Z,8.44
2022-09-28T00:53:35.420Z,8.41
2022-09-28T00:54:35.372Z,8.41
2022-09-28T00:55:35.368Z,8.40
2022-09-28T00:56:35.355Z,8.45
2022-09-28T00:57:35.378Z,8.38
2022-09-28T00:58:35.362Z,8.48
2022-09-28T00:59:35.316Z,8.50
2022-09-28T01:00:35.402Z,8.47
2022-09-28T01:01:35.311Z,8.56
2022-09-28T01:02:35.322Z,8.48
2022-09-28T01:03:35.298Z,8.53
2022-09-28T01:04:35.299Z,8.56
2022-09-28T01:05:35.267Z,8.55
2022-09-28T01:06:35.268Z,8.53
2022-09-28T01:07:35.245Z,8.53
2022-09-28T01:08:35.254Z,8.52
2022-09-28T01:09:35.225Z,8.50
2022-09-28T01:10:35.230Z,8.58
2022-09-28T01:11:35.184Z,8.62
2022-09-28T01:12:35.181Z,8.61
2022-09-28T01:13:35.195Z,8.58
2022-09-28T01:14:35.170Z,8.58
2022-09-28T01:15:35.137Z,8.65
2022-09-28T01:16:35.262Z,8.65
2022-09-28T01:17:35.128Z,8.65
2022-09-28T01:18:35.120Z,8.65
2022-09-28T01:19:35.112Z,8.68
2022-09-28T01:20:35.101Z,8.65
2022-09-28T01:21:35.077Z,8.63
2022-09-28T01:22:35.069Z,8.68
2022-09-28T01:23:35.046Z,8.65
2022-09-28T01:24:35.066Z,8.70
2022-09-28T01:25:35.038Z,8.68
2022-09-28T01:26:35.045Z,8.63
2022-09-28T01:27:35.004Z,8.65
2022-09-28T01:28:35.001Z,8.68
2022-09-28T01:29:34.987Z,8.70
2022-09-28T01:30:34.973Z,8.63
2022-09-28T01:31:35.049Z,8.65
2022-09-28T01:32:34.970Z,8.70
2022-09-28T01:33:34.936Z,8.71
2022-09-28T01:34:34.933Z,8.79
2022-09-28T01:35:34.933Z,8.73
2022-09-28T01:36:34.911Z,8.77
2022-09-28T01:37:34.916Z,8.79
2022-09-28T01:38:34.877Z,8.68
2022-09-28T01:39:34.928Z,8.70
2022-09-28T01:40:34.989Z,8.70
2022-09-28T01:41:34.875Z,8.66
2022-09-28T01:42:34.848Z,8.63
2022-09-28T01:43:34.847Z,8.65
2022-09-28T01:44:34.853Z,8.63
2022-09-28T01:45:34.846Z,8.74
2022-09-28T01:46:34.798Z,8.65
2022-09-28T01:47:34.793Z,8.65
2022-09-28T01:48:34.803Z,8.74
2022-09-28T01:49:34.795Z,8.73
2022-09-28T01:50:34.744Z,8.71
2022-09-28T01:51:34.734Z,8.71
2022-09-28T01:52:34.740Z,8.76
2022-09-28T01:53:34.760Z,8.77
2022-09-28T01:54:34.726Z,8.79
2022-09-28T01:55:34.690Z,8.77
2022-09-28T01:56:34.680Z,8.80
2022-09-28T01:57:34.669Z,8.81
2022-09-28T01:58:34.685Z,8.81
2022-09-28T01:59:34.658Z,8.77
2022-09-28T02:00:34.739Z,8.74
2022-09-28T02:01:34.621Z,8.80
2022-09-28T02:02:34.670Z,8.83
2022-09-28T02:03:34.627Z,8.76
2022-09-28T02:04:34.607Z,8.73
2022-09-28T02:05:34.599Z,8.77
2022-09-28T02:06:34.608Z,8.81
2022-09-28T02:07:34.553Z,8.76
2022-09-28T02:08:34.543Z,8.74
2022-09-28T02:09:34.556Z,8.77
2022-09-28T02:10:34.539Z,8.70
2022-09-28T02:11:34.536Z,8.77
2022-09-28T02:12:34.536Z,8.73
2022-09-28T02:13:34.500Z,8.80
2022-09-28T02:14:34.511Z,8.74
2022-09-28T02:15:34.488Z,8.71
2022-09-28T02:16:34.574Z,8.73
2022-09-28T02:17:34.464Z,8.83
2022-09-28T02:18:34.439Z,8.73
2022-09-28T02:19:34.420Z,8.74
2022-09-28T02:20:34.433Z,8.68
2022-09-28T02:21:34.433Z,8.76
2022-09-28T02:22:34.415Z,8.79
2022-09-28T02:23:34.517Z,8.70
2022-09-28T02:24:34.372Z,8.65
2022-09-28T02:25:34.351Z,8.70
2022-09-28T02:26:34.359Z,8.63
2022-09-28T02:27:34.339Z,8.63
2022-09-28T02:28:34.346Z,8.68
2022-09-28T02:29:34.354Z,8.65
2022-09-28T02:30:34.309Z,8.65
2022-09-28T02:31:34.373Z,8.70
2022-09-28T02:32:34.297Z,8.68
2022-09-28T02:33:34.303Z,8.63
2022-09-28T02:34:34.277Z,8.59
2022-09-28T02:35:34.240Z,8.58
2022-09-28T02:36:34.266Z,8.53
2022-09-28T02:37:34.222Z,8.50
2022-09-28T02:38:34.222Z,8.47
2022-09-28T02:39:34.217Z,8.53
2022-09-28T02:40:34.291Z,8.40
2022-09-28T02:41:34.174Z,8.44
2022-09-28T02:42:34.173Z,8.47
2022-09-28T02:43:34.168Z,8.43
2022-09-28T02:44:34.149Z,8.48
2022-09-28T02:45:34.213Z,8.40
2022-09-28T02:46:34.116Z,8.43
2022-09-28T02:47:34.108Z,8.43
2022-09-28T02:48:43.741Z,8.29
2022-09-28T02:49:35.110Z,8.38
2022-09-28T02:50:34.088Z,8.40
2022-09-28T02:51:34.098Z,8.28
2022-09-28T02:52:34.067Z,8.30
2022-09-28T02:53:34.041Z,8.26
2022-09-28T02:54:34.044Z,8.30
2022-09-28T02:55:34.021Z,8.33
2022-09-28T02:56:34.027Z,8.28
2022-09-28T02:57:34.023Z,8.26
2022-09-28T02:58:33.994Z,8.22
2022-09-28T02:59:33.975Z,8.19
2022-09-28T03:00:34.062Z,8.18
2022-09-28T03:01:33.999Z,8.18
2022-09-28T03:02:33.955Z,8.15
2022-09-28T03:03:33.969Z,8.19
2022-09-28T03:04:33.929Z,8.19
2022-09-28T03:05:33.908Z,8.12
2022-09-28T03:06:33.941Z,8.19
2022-09-28T03:07:33.899Z,8.18
2022-09-28T03:08:33.895Z,8.20
2022-09-28T03:09:33.899Z,8.12
2022-09-28T03:10:33.847Z,8.02
2022-09-28T03:11:33.848Z,8.11
2022-09-28T03:12:33.838Z,8.05
2022-09-28T03:13:33.837Z,8.01
2022-09-28T03:14:33.845Z,8.00
2022-09-28T03:15:33.795Z,8.04
2022-09-28T03:16:33.860Z,8.02
2022-09-28T03:17:33.797Z,8.01
2022-09-28T03:18:33.801Z,8.01
2022-09-28T03:19:33.793Z,7.97
2022-09-28T03:20:33.739Z,7.93
2022-09-28T03:21:33.781Z,7.98
2022-09-28T03:22:33.719Z,7.97
2022-09-28T03:23:33.704Z,7.93
2022-09-28T03:24:33.728Z,7.92
2022-09-28T03:25:33.682Z,7.95
2022-09-28T03:26:33.668Z,7.93
2022-09-28T03:27:33.674Z,7.97
2022-09-28T03:28:33.656Z,7.98
2022-09-28T03:29:33.642Z,7.92
2022-09-28T03:30:33.637Z,7.97
2022-09-28T03:31:33.763Z,7.89
2022-09-28T03:32:33.616Z,7.98
2022-09-28T03:33:33.596Z,7.97
2022-09-28T03:34:33.595Z,7.98
2022-09-28T03:35:33.579Z,8.00
2022-09-28T03:36:33.579Z,7.97
2022-09-28T03:37:33.601Z,7.98
2022-09-28T03:38:33.534Z,7.97
2022-09-28T03:39:33.530Z,7.93
2022-09-28T03:40:33.594Z,7.87
2022-09-28T03:41:33.517Z,7.95
2022-09-28T03:42:33.490Z,7.93
2022-09-28T03:43:33.535Z,7.95
2022-09-28T03:44:33.468Z,7.93
2022-09-28T03:45:33.550Z,7.89
2022-09-28T03:46:33.452Z,7.89
2022-09-28T03:47:33.458Z,7.93
2022-09-28T03:48:33.466Z,7.89
2022-09-28T03:49:33.422Z,7.83
2022-09-28T03:50:33.400Z,7.83
2022-09-28T03:51:33.426Z,7.89
2022-09-28T03:52:33.389Z,7.80
2022-09-28T03:53:33.398Z,7.89
2022-09-28T03:54:33.358Z,7.75
2022-09-28T03:55:33.354Z,7.86
2022-09-28T03:56:33.385Z,7.86
2022-09-28T03:57:33.357Z,7.90
2022-09-28T03:58:33.330Z,7.90
2022-09-28T03:59:33.325Z,7.87
2022-09-28T04:00:33.300Z,7.95
2022-09-28T04:01:33.406Z,8.01
2022-09-28T04:02:33.366Z,8.15
2022-09-28T04:03:33.299Z,8.12
2022-09-28T04:04:33.256Z,8.07
2022-09-28T04:05:33.275Z,8.11
2022-09-28T04:06:33.240Z,8.10
2022-09-28T04:07:33.225Z,8.16
2022-09-28T04:08:33.217Z,8.12
2022-09-28T04:09:33.200Z,8.22
2022-09-28T04:10:33.207Z,8.28
2022-09-28T04:11:43.080Z,8.20
2022-09-28T04:12:34.190Z,8.30
2022-09-28T04:13:33.161Z,8.29
2022-09-28T04:14:33.134Z,8.20
2022-09-28T04:15:33.138Z,8.18
2022-09-28T04:16:33.213Z,8.29
2022-09-28T04:17:36.515Z,8.41
2022-09-28T04:18:34.103Z,8.38
2022-09-28T04:19:33.096Z,8.33
2022-09-28T04:20:33.072Z,8.28
2022-09-28T04:21:33.066Z,8.37
2022-09-28T04:22:33.076Z,8.28
2022-09-28T04:23:33.032Z,8.41
2022-09-28T04:24:33.041Z,8.41
2022-09-28T04:25:33.065Z,8.36
2022-09-28T04:26:33.012Z,8.37
2022-09-28T04:27:33.006Z,8.34
2022-09-28T04:28:32.992Z,8.43
2022-09-28T04:29:32.965Z,8.43
2022-09-28T04:30:33.005Z,8.38
2022-09-28T04:31:33.041Z,8.45
2022-09-28T04:32:32.977Z,8.41
2022-09-28T04:33:32.946Z,8.44
2022-09-28T04:34:35.977Z,8.37
2022-09-28T04:35:33.939Z,8.45
2022-09-28T04:36:32.899Z,8.47
2022-09-28T04:37:32.888Z,8.38
2022-09-28T04:38:51.795Z,8.48
2022-09-28T04:39:33.852Z,8.44
2022-09-28T04:40:32.884Z,8.43
2022-09-28T04:41:32.830Z,8.48
2022-09-28T04:42:32.847Z,8.48
2022-09-28T04:43:32.826Z,8.52
2022-09-28T04:44:32.838Z,8.48
2022-09-28T04:45:32.880Z,8.45
2022-09-28T04:46:32.799Z,8.65
2022-09-28T04:47:32.770Z,8.52
2022-09-28T04:48:32.753Z,8.63
2022-09-28T04:49:32.791Z,8.65
2022-09-28T04:50:32.729Z,8.62
2022-09-28T04:51:32.717Z,8.65
2022-09-28T04:52:32.723Z,8.65
2022-09-28T04:53:32.710Z,8.71
2022-09-28T04:54:32.698Z,8.63
2022-09-28T04:55:32.716Z,8.63
2022-09-28T04:56:32.693Z,8.71
2022-09-28T04:57:32.673Z,8.71
2022-09-28T04:58:32.640Z,8.77
2022-09-28T04:59:32.648Z,8.74
2022-09-28T05:00:32.651Z,8.66
2022-09-28T05:01:32.689Z,8.74
2022-09-28T05:02:32.700Z,8.76
2022-09-28T05:03:32.599Z,8.74
2022-09-28T05:04:32.579Z,8.73
2022-09-28T05:05:32.569Z,8.77
2022-09-28T05:06:32.573Z,8.84
2022-09-28T05:07:32.590Z,8.77
2022-09-28T05:08:32.531Z,8.81
2022-09-28T05:09:36.355Z,8.76
2022-09-28T05:10:33.521Z,8.79
2022-09-28T05:11:32.503Z,8.76
2022-09-28T05:12:32.513Z,8.79
2022-09-28T05:13:32.520Z,8.71
2022-09-28T05:14:32.517Z,8.74
2022-09-28T05:15:32.465Z,8.79
2022-09-28T05:16:32.510Z,8.74
2022-09-28T05:17:32.477Z,8.77
2022-09-28T05:18:32.437Z,8.70
2022-09-28T05:19:32.460Z,8.71
2022-09-28T05:20:32.403Z,8.73
2022-09-28T05:21:32.455Z,8.74
2022-09-28T05:22:32.373Z,8.81
2022-09-28T05:23:34.327Z,8.76
2022-09-28T05:24:32.378Z,8.86
2022-09-28T05:25:32.341Z,8.84
2022-09-28T05:26:32.334Z,8.84
2022-09-28T05:27:32.328Z,8.81
2022-09-28T05:28:32.313Z,8.87
2022-09-28T05:29:32.833Z,8.92
2022-09-28T05:30:32.330Z,8.84
2022-09-28T05:31:32.343Z,8.79
2022-09-28T05:32:32.283Z,8.84
2022-09-28T05:33:32.249Z,8.89
2022-09-28T05:34:32.250Z,8.89
2022-09-28T05:35:32.296Z,8.79
2022-09-28T05:36:32.254Z,8.92
2022-09-28T05:37:32.204Z,8.92
2022-09-28T05:38:32.205Z,8.96
2022-09-28T05:39:32.186Z,8.95
2022-09-28T05:40:32.265Z,8.91
2022-09-28T05:41:32.188Z,8.95
2022-09-28T05:42:32.147Z,8.92
2022-09-28T05:43:32.155Z,8.98
2022-09-28T05:44:32.149Z,8.89
2022-09-28T05:45:32.166Z,8.99
2022-09-28T05:46:32.128Z,8.95
2022-09-28T05:47:32.124Z,8.95
2022-09-28T05:48:32.096Z,8.92
2022-09-28T05:49:32.099Z,8.92
2022-09-28T05:50:32.078Z,8.92
2022-09-28T05:51:32.066Z,8.95
2022-09-28T05:52:32.071Z,8.92
2022-09-28T05:53:32.033Z,8.92
2022-09-28T05:54:32.038Z,8.92
2022-09-28T05:55:32.063Z,8.91
2022-09-28T05:56:31.991Z,8.91
2022-09-28T05:57:32.000Z,8.91
2022-09-28T05:58:31.969Z,8.92
2022-09-28T05:59:31.976Z,8.92
2022-09-28T06:00:31.944Z,8.89
2022-09-28T06:01:40.557Z,8.91
2022-09-28T06:02:31.976Z,8.89
2022-09-28T06:03:31.941Z,8.94
2022-09-28T06:04:31.915Z,8.91
2022-09-28T06:05:31.891Z,8.92
2022-09-28T06:06:31.879Z,8.94
2022-09-28T06:07:31.891Z,8.96
2022-09-28T06:08:31.872Z,9.05
2022-09-28T06:09:31.885Z,8.94
2022-09-28T06:10:31.831Z,8.92
2022-09-28T06:11:31.823Z,9.08
2022-09-28T06:12:31.890Z,8.95
2022-09-28T06:13:31.808Z,9.04
2022-09-28T06:14:31.821Z,8.95
2022-09-28T06:15:31.811Z,9.02
2022-09-28T06:16:31.805Z,9.01
2022-09-28T06:17:31.792Z,9.13
2022-09-28T06:18:31.761Z,9.05
2022-09-28T06:19:31.741Z,9.08
2022-09-28T06:20:31.771Z,9.01
2022-09-28T06:21:31.724Z,9.04
2022-09-28T06:22:31.701Z,9.10
2022-09-28T06:23:31.723Z,9.10
2022-09-28T06:24:31.725Z,9.05
2022-09-28T06:25:31.694Z,9.10
2022-09-28T06:26:31.707Z,9.04
2022-09-28T06:27:31.693Z,9.11
2022-09-28T06:28:31.629Z,9.04
2022-09-28T06:29:31.639Z,9.01
2022-09-28T06:30:31.727Z,9.08
2022-09-28T06:31:31.644Z,8.94
2022-09-28T06:32:31.630Z,9.10
2022-09-28T06:33:31.584Z,8.98
2022-09-28T06:34:31.565Z,9.10
2022-09-28T06:35:31.580Z,9.13
2022-09-28T06:36:31.598Z,9.05
2022-09-28T06:37:31.562Z,9.04
2022-09-28T06:38:31.524Z,9.02
2022-09-28T06:39:31.508Z,8.99
2022-09-28T06:40:31.537Z,9.04
2022-09-28T06:41:31.487Z,9.04
2022-09-28T06:42:31.491Z,9.02
2022-09-28T06:43:34.396Z,8.99
2022-09-28T06:44:31.453Z,9.04
2022-09-28T06:45:31.440Z,9.11
2022-09-28T06:46:31.597Z,9.08
2022-09-28T06:47:31.449Z,9.15
2022-09-28T06:48:31.418Z,9.05
2022-09-28T06:49:31.439Z,9.11
2022-09-28T06:50:31.385Z,9.04
2022-09-28T06:51:31.377Z,9.10
2022-09-28T06:52:31.409Z,9.11
2022-09-28T06:53:31.366Z,9.08
2022-09-28T06:54:31.369Z,9.15
2022-09-28T06:55:31.368Z,9.18
2022-09-28T06:56:33.004Z,9.13
2022-09-28T06:57:31.314Z,9.11
2022-09-28T06:58:31.300Z,9.10
2022-09-28T06:59:31.329Z,9.17
2022-09-28T07:00:31.301Z,9.15
2022-09-28T07:01:31.371Z,9.20
2022-09-28T07:02:31.374Z,9.23
2022-09-28T07:03:31.237Z,9.23
2022-09-28T07:04:31.234Z,9.35
2022-09-28T07:05:31.248Z,9.29
2022-09-28T07:06:31.212Z,9.33
2022-09-28T07:07:31.200Z,9.32
2022-09-28T07:08:31.233Z,9.35
2022-09-28T07:09:33.439Z,9.38
2022-09-28T07:10:31.173Z,9.40
2022-09-28T07:11:31.186Z,9.36
2022-09-28T07:12:31.183Z,9.46
2022-09-28T07:13:50.963Z,9.51
2022-09-28T07:14:46.864Z,9.53
2022-09-28T07:15:32.124Z,9.42
2022-09-28T07:16:54.384Z,9.47
2022-09-28T07:17:33.003Z,9.50
2022-09-28T07:18:31.129Z,9.48
2022-09-28T07:19:31.065Z,9.53
2022-09-28T07:20:31.580Z,9.58
2022-09-28T07:21:31.144Z,9.53
2022-09-28T07:22:42.044Z,9.64
2022-09-28T07:23:33.482Z,9.68
2022-09-28T07:24:31.021Z,9.61
2022-09-28T07:25:31.171Z,9.65
2022-09-28T07:26:30.983Z,9.66
2022-09-28T07:27:30.982Z,9.69
2022-09-28T07:28:30.981Z,9.60
2022-09-28T07:29:30.947Z,9.66
2022-09-28T07:30:31.052Z,9.60
2022-09-28T07:31:30.943Z,9.66
2022-09-28T07:33:31.451Z,9.69
2022-09-28T07:34:30.979Z,9.53
2022-09-28T07:35:30.878Z,9.65
2022-09-28T07:36:30.881Z,9.54
2022-09-28T07:37:30.883Z,9.51
2022-09-28T07:38:30.858Z,9.50
2022-09-28T07:39:30.956Z,9.51
2022-09-28T07:40:30.936Z,9.60
2022-09-28T07:41:30.812Z,9.51
2022-09-28T07:42:30.876Z,9.53
2022-09-28T07:43:30.798Z,9.54
2022-09-28T07:44:30.795Z,9.54
2022-09-28T07:45:30.874Z,9.51
2022-09-28T07:46:30.774Z,9.48
2022-09-28T07:47:34.908Z,9.46
2022-09-28T07:48:30.811Z,9.57
2022-09-28T07:49:30.838Z,9.68
2022-09-28T07:50:30.743Z,9.68
2022-09-28T07:51:30.704Z,9.66
2022-09-28T07:52:30.690Z,9.65
2022-09-28T07:53:30.678Z,9.61
2022-09-28T07:54:31.001Z,9.65
2022-09-28T07:55:31.033Z,9.65
2022-09-28T07:56:30.665Z,9.71
2022-09-28T07:57:30.633Z,9.64
2022-09-28T07:58:30.628Z,9.61
2022-09-28T07:59:30.709Z,9.68
2022-09-28T08:00:33.955Z,9.75
2022-09-28T08:01:30.738Z,9.64
2022-09-28T08:02:31.518Z,9.61
2022-09-28T08:03:30.564Z,9.74
2022-09-28T08:04:30.562Z,9.65
2022-09-28T08:05:30.545Z,9.72
2022-09-28T08:06:30.537Z,9.69
2022-09-28T08:07:30.554Z,9.68
2022-09-28T08:08:30.522Z,9.72
2022-09-28T08:09:30.572Z,9.65
2022-09-28T08:10:30.488Z,9.68
2022-09-28T08:11:30.500Z,9.64
2022-09-28T08:12:30.502Z,9.71
2022-09-28T08:13:30.490Z,9.65
2022-09-28T08:14:30.596Z,9.72
2022-09-28T08:15:30.431Z,9.66
2022-09-28T08:16:30.585Z,9.76
2022-09-28T08:17:30.449Z,9.75
2022-09-28T08:18:30.415Z,9.75
2022-09-28T08:19:30.444Z,9.79
2022-09-28T08:20:30.396Z,9.81
2022-09-28T08:21:30.366Z,9.75
2022-09-28T08:22:30.355Z,9.78
2022-09-28T08:23:30.351Z,9.83
2022-09-28T08:24:30.448Z,9.79
2022-09-28T08:25:30.353Z,9.89
2022-09-28T08:26:40.731Z,9.86
2022-09-28T08:27:30.301Z,9.86
2022-09-28T08:28:30.335Z,9.83
2022-09-28T08:29:30.288Z,9.90
2022-09-28T08:30:30.355Z,9.89
2022-09-28T08:31:30.265Z,9.90
2022-09-28T08:32:30.243Z,9.87
2022-09-28T08:33:30.253Z,9.86
2022-09-28T08:34:30.270Z,9.91
2022-09-28T08:35:30.230Z,9.84
2022-09-28T08:36:30.222Z,9.94
2022-09-28T08:37:30.238Z,9.93
2022-09-28T08:38:30.248Z,9.89
2022-09-28T08:39:30.255Z,9.84
2022-09-28T08:40:30.231Z,9.91
2022-09-28T08:41:30.174Z,9.89
2022-09-28T08:42:30.189Z,9.89
2022-09-28T08:43:30.116Z,9.94
2022-09-28T08:44:30.130Z,9.90
2022-09-28T08:45:30.114Z,9.94
2022-09-28T08:46:30.110Z,9.89
2022-09-28T08:47:30.107Z,9.86
2022-09-28T08:48:30.081Z,9.74
2022-09-28T08:49:30.081Z,9.57
2022-09-28T08:50:30.041Z,9.47
2022-09-28T08:51:30.062Z,9.31
2022-09-28T08:52:30.074Z,9.18
2022-09-28T08:53:30.044Z,9.21
2022-09-28T08:54:30.041Z,9.02
2022-09-28T08:55:29.998Z,8.95
2022-09-28T08:56:29.992Z,8.95
2022-09-28T08:57:30.005Z,8.89
2022-09-28T08:58:29.970Z,8.92
2022-09-28T08:59:29.973Z,8.81
2022-09-28T09:00:30.016Z,8.74
2022-09-28T09:01:30.003Z,8.79
2022-09-28T09:02:29.966Z,8.70
2022-09-28T09:03:29.942Z,8.77
2022-09-28T09:04:29.914Z,8.74
2022-09-28T09:05:29.913Z,8.73
2022-09-28T09:06:29.860Z,8.74
2022-09-28T09:07:29.867Z,8.66
2022-09-28T09:08:29.935Z,8.76
2022-09-28T09:09:29.848Z,8.79
2022-09-28T09:10:29.863Z,8.83
2022-09-28T09:11:29.857Z,8.79
2022-09-28T09:12:29.794Z,8.81
2022-09-28T09:13:29.811Z,8.86
2022-09-28T09:14:29.787Z,8.86
2022-09-28T09:15:29.781Z,8.80
2022-09-28T09:16:29.834Z,8.76
2022-09-28T09:17:29.738Z,8.77
2022-09-28T09:18:29.728Z,8.81
2022-09-28T09:19:29.728Z,8.92
2022-09-28T09:20:29.734Z,8.92
2022-09-28T09:21:29.716Z,8.95
2022-09-28T09:22:30.079Z,8.94
2022-09-28T09:23:29.701Z,8.94
2022-09-28T09:24:29.692Z,8.94
2022-09-28T09:25:29.655Z,9.08
2022-09-28T09:26:29.649Z,9.05
2022-09-28T09:27:29.670Z,9.13
2022-09-28T09:28:29.639Z,8.99
2022-09-28T09:29:29.601Z,9.11
2022-09-28T09:30:31.455Z,8.99
2022-09-28T09:31:29.595Z,9.08
2022-09-28T09:32:29.592Z,9.08
2022-09-28T09:33:29.596Z,9.11
2022-09-28T09:34:29.545Z,9.21
2022-09-28T09:35:31.268Z,9.21
2022-09-28T09:36:29.524Z,9.26
2022-09-28T09:37:29.532Z,9.35
2022-09-28T09:38:29.526Z,9.43
2022-09-28T09:39:29.504Z,9.35
2022-09-28T09:40:29.509Z,9.40
2022-09-28T09:41:29.491Z,9.43
2022-09-28T09:42:29.470Z,9.40
2022-09-28T09:43:31.619Z,9.43
2022-09-28T09:44:29.464Z,9.57
2022-09-28T09:45:29.525Z,9.61
2022-09-28T09:46:29.428Z,9.64
2022-09-28T09:47:29.399Z,9.64
2022-09-28T09:48:29.424Z,9.66
2022-09-28T09:49:29.415Z,9.66
2022-09-28T09:50:29.409Z,9.64
2022-09-28T09:51:29.362Z,9.75
2022-09-28T09:52:29.452Z,9.83
2022-09-28T09:53:29.337Z,9.89
2022-09-28T09:54:29.446Z,9.91
2022-09-28T09:55:30.170Z,10.02
2022-09-28T09:56:29.314Z,9.99
2022-09-28T09:57:29.293Z,9.91
2022-09-28T09:58:29.291Z,9.94
2022-09-28T09:59:29.275Z,9.90
2022-09-28T10:00:29.291Z,9.81
2022-09-28T10:01:29.450Z,9.78
2022-09-28T10:02:29.342Z,9.87
2022-09-28T10:03:29.224Z,9.93
2022-09-28T10:04:29.254Z,9.96
2022-09-28T10:05:29.209Z,10.01
2022-09-28T10:06:29.219Z,9.99
2022-09-28T10:07:29.200Z,10.01
2022-09-28T10:08:29.164Z,10.08
2022-09-28T10:09:29.213Z,10.08
2022-09-28T10:10:29.208Z,10.07
2022-09-28T10:11:29.176Z,10.20
2022-09-28T10:12:29.148Z,10.20
2022-09-28T10:13:29.141Z,10.25
2022-09-28T10:14:29.097Z,10.25
2022-09-28T10:15:29.085Z,10.30
2022-09-28T10:16:29.167Z,10.33
2022-09-28T10:17:29.095Z,10.42
2022-09-28T10:18:29.070Z,10.51
2022-09-28T10:19:29.109Z,10.47
2022-09-28T10:20:29.046Z,10.45
2022-09-28T10:21:29.021Z,10.48
2022-09-28T10:22:29.029Z,10.47
2022-09-28T10:23:29.033Z,10.51
2022-09-28T10:24:28.997Z,10.59
2022-09-28T10:25:28.974Z,10.56
2022-09-28T10:26:28.964Z,10.53
2022-09-28T10:27:28.959Z,10.60
2022-09-28T10:28:28.972Z,10.59
2022-09-28T10:29:28.942Z,10.59
2022-09-28T10:30:28.988Z,10.64
2022-09-28T10:31:28.908Z,10.71
2022-09-28T10:32:28.896Z,10.71
2022-09-28T10:33:28.931Z,10.67
2022-09-28T10:34:28.873Z,10.74
2022-09-28T10:35:28.869Z,10.78
2022-09-28T10:36:28.882Z,10.76
2022-09-28T10:37:28.858Z,10.73
2022-09-28T10:38:28.845Z,10.81
2022-09-28T10:39:28.838Z,10.82
2022-09-28T10:40:28.858Z,10.76
2022-09-28T10:41:28.805Z,10.82
2022-09-28T10:42:28.782Z,10.79
2022-09-28T10:43:28.799Z,10.85
2022-09-28T10:44:28.805Z,10.84
2022-09-28T10:45:28.789Z,10.78
2022-09-28T10:46:28.777Z,10.85
2022-09-28T10:47:28.755Z,10.81
2022-09-28T10:48:28.719Z,10.84
2022-09-28T10:49:28.766Z,10.68
2022-09-28T10:50:28.710Z,10.81
2022-09-28T10:51:28.684Z,10.81
2022-09-28T10:52:28.707Z,10.81
2022-09-28T10:53:28.660Z,10.84
2022-09-28T10:54:28.649Z,10.78
2022-09-28T10:55:28.662Z,10.81
2022-09-28T10:56:28.649Z,10.85
2022-09-28T10:57:28.657Z,10.82
2022-09-28T10:58:28.615Z,10.81
2022-09-28T10:59:28.592Z,10.82
2022-09-28T11:00:28.591Z,10.82
2022-09-28T11:01:28.651Z,10.78
2022-09-28T11:02:31.268Z,10.79
2022-09-28T11:03:29.547Z,10.82
2022-09-28T11:04:28.594Z,10.78
2022-09-28T11:05:28.531Z,10.74
2022-09-28T11:06:28.515Z,10.76
2022-09-28T11:07:28.513Z,10.81
2022-09-28T11:08:28.512Z,10.78
2022-09-28T11:09:30.750Z,10.70
2022-09-28T11:10:28.500Z,10.71
2022-09-28T11:11:28.464Z,10.82
2022-09-28T11:12:28.455Z,10.79
2022-09-28T11:13:29.267Z,10.71
2022-09-28T11:14:28.471Z,10.73
2022-09-28T11:15:28.439Z,10.82
2022-09-28T11:16:28.535Z,10.78
2022-09-28T11:17:28.395Z,10.78
2022-09-28T11:18:28.394Z,10.76
2022-09-28T11:19:28.407Z,10.76
2022-09-28T11:20:28.749Z,10.88
2022-09-28T11:21:28.382Z,10.86
2022-09-28T11:22:28.338Z,10.82
2022-09-28T11:23:28.333Z,10.76
2022-09-28T11:24:28.348Z,10.82
2022-09-28T11:25:28.331Z,10.81
2022-09-28T11:26:28.300Z,10.82
2022-09-28T11:27:28.310Z,10.78
2022-09-28T11:28:28.272Z,10.74
2022-09-28T11:29:28.278Z,10.85
2022-09-28T11:30:28.332Z,10.73
2022-09-28T11:31:28.280Z,10.79
2022-09-28T11:32:28.237Z,10.76
2022-09-28T11:33:28.224Z,10.82
2022-09-28T11:34:41.842Z,10.78
2022-09-28T11:35:29.194Z,10.76
2022-09-28T11:36:28.220Z,10.89
2022-09-28T11:37:28.276Z,10.85
2022-09-28T11:38:28.176Z,10.78
2022-09-28T11:39:28.150Z,10.74
2022-09-28T11:40:28.219Z,10.79
2022-09-28T11:41:28.243Z,10.81
2022-09-28T11:42:28.114Z,10.82
2022-09-28T11:43:28.124Z,10.82
2022-09-28T11:44:31.028Z,10.85
2022-09-28T11:45:29.106Z,10.88
2022-09-28T11:46:28.142Z,10.88
2022-09-28T11:47:28.087Z,10.85
2022-09-28T11:48:28.054Z,10.89
2022-09-28T11:49:28.102Z,10.99
2022-09-28T11:50:28.060Z,10.89
2022-09-28T11:51:28.026Z,10.94
2022-09-28T11:52:28.022Z,10.88
2022-09-28T11:53:28.023Z,10.94
2022-09-28T11:54:27.996Z,10.89
2022-09-28T11:55:27.987Z,10.89
2022-09-28T11:56:28.017Z,10.92
2022-09-28T11:57:27.963Z,11.02
2022-09-28T11:58:27.966Z,10.99
2022-09-28T11:59:27.958Z,11.14
2022-09-28T12:00:27.931Z,11.11
2022-09-28T12:01:27.904Z,11.07
2022-09-28T12:02:27.985Z,11.07
2022-09-28T12:03:27.979Z,11.17
2022-09-28T12:04:27.895Z,11.09
2022-09-28T12:05:27.903Z,11.11
2022-09-28T12:06:27.858Z,11.02
2022-09-28T12:07:27.839Z,11.04
2022-09-28T12:08:27.826Z,10.97
2022-09-28T12:09:27.831Z,10.85
2022-09-28T12:10:27.886Z,10.86
2022-09-28T12:11:27.802Z,10.81
2022-09-28T12:12:27.798Z,10.82
2022-09-28T12:13:27.773Z,10.76
2022-09-28T12:14:27.776Z,10.82
2022-09-28T12:15:27.769Z,10.78
2022-09-28T12:16:53.442Z,10.76
2022-09-28T12:17:28.865Z,10.82
2022-09-28T12:18:27.749Z,10.81
2022-09-28T12:19:27.745Z,10.74
2022-09-28T12:20:27.702Z,10.88
2022-09-28T12:21:27.707Z,10.82
2022-09-28T12:22:27.685Z,10.86
2022-09-28T12:23:27.676Z,10.82
2022-09-28T12:24:27.687Z,10.84
2022-09-28T12:25:27.638Z,10.91
2022-09-28T12:26:27.638Z,10.89
2022-09-28T12:27:27.632Z,10.97
2022-09-28T12:28:27.634Z,10.84
2022-09-28T12:29:27.613Z,10.89
2022-09-28T12:30:27.622Z,10.86
2022-09-28T12:31:27.573Z,10.78
2022-09-28T12:32:27.570Z,10.84
2022-09-28T12:33:27.565Z,10.82
2022-09-28T12:34:27.555Z,10.88
2022-09-28T12:35:27.587Z,10.84
2022-09-28T12:36:27.516Z,10.82
2022-09-28T12:37:27.512Z,10.79
2022-09-28T12:38:27.516Z,10.89
2022-09-28T12:39:46.955Z,10.82
2022-09-28T12:40:28.552Z,10.82
2022-09-28T12:41:27.498Z,10.82
2022-09-28T12:42:27.459Z,10.84
2022-09-28T12:43:27.452Z,10.89
2022-09-28T12:44:27.472Z,10.88
2022-09-28T12:45:27.424Z,10.78
2022-09-28T12:46:27.555Z,10.79
2022-09-28T12:47:27.394Z,10.88
2022-09-28T12:48:27.383Z,10.76
2022-09-28T12:50:50.096Z,10.84
2022-09-28T12:51:28.380Z,10.84
2022-09-28T12:52:27.384Z,10.88
2022-09-28T12:53:27.377Z,10.91
2022-09-28T12:54:27.322Z,10.96
2022-09-28T12:55:27.321Z,10.97
2022-09-28T12:56:27.306Z,11.02
2022-09-28T12:57:27.292Z,11.04
2022-09-28T12:58:27.309Z,11.02
2022-09-28T12:59:27.267Z,11.09
2022-09-28T13:00:27.279Z,11.09
2022-09-28T13:01:27.328Z,11.21
2022-09-28T13:02:27.279Z,11.17
2022-09-28T13:03:27.228Z,11.22
2022-09-28T13:04:27.206Z,11.17
2022-09-28T13:05:27.200Z,11.28
2022-09-28T13:06:27.205Z,11.22
2022-09-28T13:07:27.209Z,11.25
2022-09-28T13:08:27.173Z,11.29
2022-09-28T13:09:27.168Z,11.14
2022-09-28T13:10:27.180Z,11.18
2022-09-28T13:11:27.141Z,11.14
2022-09-28T13:12:27.136Z,11.17
2022-09-28T13:13:27.106Z,11.17
2022-09-28T13:14:27.102Z,11.21